Time,TemperatureF,DewpointF,PressureIn,WindDirection,WindDirectionDegrees,WindSpeedMPH,WindSpeedGustMPH,Humidity,HourlyPrecipIn,Conditions,Clouds,dailyrainin,SoftwareType,DateUTC
2013-05-31 00:01:00,64.7,60.7,29.46,South,182,4.0,4.0,87,0.00,,,0.00,vanprod-2.3,2013-05-31 05:01:00,
2013-05-31 00:06:00,64.7,60.7,29.47,SSE,164,6.0,12.0,87,0.00,,,0.00,vanprod-2.3,2013-05-31 05:06:00,
2013-05-31 00:11:00,64.8,60.5,29.46,SSW,199,7.0,16.0,86,0.00,,,0.00,vanprod-2.3,2013-05-31 05:11:00,
2013-05-31 00:16:00,65.0,60.4,29.47,SSE,155,7.0,13.0,85,0.01,,,0.01,vanprod-2.3,2013-05-31 05:16:00,
2013-05-31 00:21:00,64.2,60.3,29.48,SSE,165,5.0,5.0,87,0.05,,,0.05,vanprod-2.3,2013-05-31 05:21:00,
2013-05-31 00:26:00,63.4,59.1,29.47,SSE,156,3.0,5.0,86,0.08,,,0.08,vanprod-2.3,2013-05-31 05:26:00,
2013-05-31 00:31:00,62.9,59.0,29.46,SSE,157,0.0,0.0,87,0.10,,,0.10,vanprod-2.3,2013-05-31 05:31:00,
2013-05-31 00:36:00,62.4,59.1,29.46,SSE,157,0.0,0.0,89,0.10,,,0.10,vanprod-2.3,2013-05-31 05:36:00,
2013-05-31 00:41:00,61.9,58.9,29.46,SSE,157,0.0,0.0,90,0.10,,,0.10,vanprod-2.3,2013-05-31 05:41:00,
2013-05-31 00:46:00,61.6,58.6,29.45,SSE,157,0.0,0.0,90,0.10,,,0.10,vanprod-2.3,2013-05-31 05:46:00,
2013-05-31 00:51:00,61.3,58.7,29.47,SSE,157,0.0,0.0,91,0.10,,,0.10,vanprod-2.3,2013-05-31 05:51:00,
2013-05-31 00:56:00,61.5,58.9,29.46,SSE,157,0.0,0.0,91,0.10,,,0.10,vanprod-2.3,2013-05-31 05:56:00,
2013-05-31 01:01:00,61.6,59.3,29.46,SSE,157,0.0,1.0,92,0.10,,,0.10,vanprod-2.3,2013-05-31 06:01:00,
2013-05-31 01:06:00,61.8,59.5,29.46,South,171,2.0,3.0,92,0.10,,,0.10,vanprod-2.3,2013-05-31 06:06:00,
2013-05-31 01:11:00,61.9,58.9,29.46,SSE,150,2.0,2.0,90,0.10,,,0.10,vanprod-2.3,2013-05-31 06:11:00,
2013-05-31 01:16:00,61.8,58.5,29.46,SSE,150,2.0,2.0,89,0.09,,,0.10,vanprod-2.3,2013-05-31 06:16:00,
2013-05-31 01:21:00,61.6,58.3,29.46,SSE,150,0.0,0.0,89,0.05,,,0.10,vanprod-2.3,2013-05-31 06:21:00,
2013-05-31 01:26:00,61.3,58.0,29.46,SSE,154,1.0,1.0,89,0.02,,,0.10,vanprod-2.3,2013-05-31 06:26:00,
2013-05-31 01:31:00,61.1,57.5,29.46,SSE,154,0.0,2.0,88,0.00,,,0.10,vanprod-2.3,2013-05-31 06:31:00,
2013-05-31 01:36:00,61.0,57.4,29.46,SSE,157,2.0,2.0,88,0.00,,,0.10,vanprod-2.3,2013-05-31 06:36:00,
2013-05-31 01:41:00,61.0,56.8,29.46,SSE,161,2.0,10.0,86,0.00,,,0.10,vanprod-2.3,2013-05-31 06:41:00,
2013-05-31 01:46:00,60.8,56.3,29.46,SSE,157,2.0,3.0,85,0.00,,,0.10,vanprod-2.3,2013-05-31 06:46:00,
2013-05-31 01:51:00,61.0,55.1,29.46,SSE,161,3.0,3.0,81,0.00,,,0.10,vanprod-2.3,2013-05-31 06:51:00,
2013-05-31 01:56:00,61.0,55.1,29.45,SSE,164,2.0,3.0,81,0.00,,,0.10,vanprod-2.3,2013-05-31 06:56:00,
2013-05-31 02:01:00,60.8,54.3,29.45,South,176,2.0,2.0,79,0.00,,,0.10,vanprod-2.3,2013-05-31 07:01:00,
2013-05-31 02:06:00,60.7,54.5,29.45,South,174,3.0,7.0,80,0.00,,,0.10,vanprod-2.3,2013-05-31 07:06:00,
2013-05-31 02:11:00,60.5,54.0,29.45,South,177,5.0,13.0,79,0.00,,,0.10,vanprod-2.3,2013-05-31 07:11:00,
2013-05-31 02:16:00,60.7,54.2,29.45,SSE,155,6.0,7.0,79,0.00,,,0.10,vanprod-2.3,2013-05-31 07:16:00,
2013-05-31 02:21:00,60.5,54.3,29.45,SSE,165,5.0,7.0,80,0.00,,,0.10,vanprod-2.3,2013-05-31 07:21:00,
2013-05-31 02:26:00,60.5,54.3,29.45,SSW,192,5.0,12.0,80,0.00,,,0.10,vanprod-2.3,2013-05-31 07:26:00,
2013-05-31 02:31:00,60.5,54.3,29.45,South,179,4.0,6.0,80,0.00,,,0.10,vanprod-2.3,2013-05-31 07:31:00,
2013-05-31 02:36:00,60.4,54.9,29.45,South,174,3.0,6.0,82,0.00,,,0.10,vanprod-2.3,2013-05-31 07:36:00,
2013-05-31 02:41:00,60.2,54.7,29.45,South,172,3.0,6.0,82,0.00,,,0.10,vanprod-2.3,2013-05-31 07:41:00,
2013-05-31 02:46:00,60.0,54.8,29.45,South,172,2.0,3.0,83,0.00,,,0.10,vanprod-2.3,2013-05-31 07:46:00,
2013-05-31 02:51:00,60.0,54.8,29.45,South,169,3.0,6.0,83,0.00,,,0.10,vanprod-2.3,2013-05-31 07:51:00,
2013-05-31 02:56:00,59.9,54.7,29.45,SSE,168,4.0,7.0,83,0.00,,,0.10,vanprod-2.3,2013-05-31 07:56:00,
2013-05-31 03:01:00,60.0,54.8,29.45,SE,141,4.0,4.0,83,0.00,,,0.10,vanprod-2.3,2013-05-31 08:01:00,
2013-05-31 03:06:00,59.9,55.1,29.45,South,176,4.0,4.0,84,0.00,,,0.10,vanprod-2.3,2013-05-31 08:06:00,
2013-05-31 03:11:00,59.9,55.1,29.45,South,177,6.0,8.0,84,0.00,,,0.10,vanprod-2.3,2013-05-31 08:11:00,
2013-05-31 03:16:00,60.0,54.8,29.45,South,175,4.0,7.0,83,0.00,,,0.10,vanprod-2.3,2013-05-31 08:16:00,
2013-05-31 03:21:00,60.2,55.0,29.45,South,172,6.0,6.0,83,0.00,,,0.10,vanprod-2.3,2013-05-31 08:21:00,
2013-05-31 03:26:00,60.2,55.0,29.45,South,191,4.0,4.0,83,0.00,,,0.10,vanprod-2.3,2013-05-31 08:26:00,
2013-05-31 03:31:00,60.2,54.7,29.45,South,179,4.0,4.0,82,0.00,,,0.10,vanprod-2.3,2013-05-31 08:31:00,
2013-05-31 03:36:00,60.0,54.8,29.45,South,179,3.0,7.0,83,0.00,,,0.10,vanprod-2.3,2013-05-31 08:36:00,
2013-05-31 03:41:00,59.7,54.5,29.45,SSE,147,3.0,5.0,83,0.00,,,0.10,vanprod-2.3,2013-05-31 08:41:00,
2013-05-31 03:46:00,59.6,54.4,29.45,SSE,158,1.0,2.0,83,0.00,,,0.10,vanprod-2.3,2013-05-31 08:46:00,
2013-05-31 03:51:00,59.4,54.2,29.46,South,174,4.0,7.0,83,0.00,,,0.10,vanprod-2.3,2013-05-31 08:51:00,
2013-05-31 03:56:00,59.3,54.1,29.46,South,176,4.0,6.0,83,0.00,,,0.10,vanprod-2.3,2013-05-31 08:56:00,
2013-05-31 04:01:00,59.3,54.1,29.45,South,169,5.0,7.0,83,0.00,,,0.10,vanprod-2.3,2013-05-31 09:01:00,
2013-05-31 04:06:00,59.3,53.8,29.45,South,181,3.0,3.0,82,0.00,,,0.10,vanprod-2.3,2013-05-31 09:06:00,
2013-05-31 04:11:00,59.3,53.8,29.45,South,171,3.0,3.0,82,0.00,,,0.10,vanprod-2.3,2013-05-31 09:11:00,
2013-05-31 04:16:00,59.1,53.6,29.45,SSE,157,3.0,3.0,82,0.00,,,0.10,vanprod-2.3,2013-05-31 09:16:00,
2013-05-31 04:21:00,59.0,53.9,29.45,SSE,159,3.0,5.0,83,0.00,,,0.10,vanprod-2.3,2013-05-31 09:21:00,
2013-05-31 04:26:00,58.8,53.7,29.45,SSE,166,4.0,8.0,83,0.00,,,0.10,vanprod-2.3,2013-05-31 09:26:00,
2013-05-31 04:31:00,59.0,52.8,29.45,South,170,5.0,5.0,80,0.00,,,0.10,vanprod-2.3,2013-05-31 09:31:00,
2013-05-31 04:36:00,58.8,53.0,29.46,South,169,3.0,3.0,81,0.00,,,0.10,vanprod-2.3,2013-05-31 09:36:00,
2013-05-31 04:41:00,58.7,53.2,29.46,South,169,2.0,2.0,82,0.00,,,0.10,vanprod-2.3,2013-05-31 09:41:00,
2013-05-31 04:46:00,58.5,53.0,29.46,SSE,159,4.0,7.0,82,0.00,,,0.10,vanprod-2.3,2013-05-31 09:46:00,
2013-05-31 04:51:00,58.4,52.9,29.46,SSE,167,3.0,3.0,82,0.00,,,0.10,vanprod-2.3,2013-05-31 09:51:00,
2013-05-31 04:56:00,58.2,53.1,29.45,SSE,168,3.0,3.0,83,0.00,,,0.10,vanprod-2.3,2013-05-31 09:56:00,
2013-05-31 05:01:00,58.1,52.6,29.45,SSE,167,5.0,7.0,82,0.00,,,0.10,vanprod-2.3,2013-05-31 10:01:00,
2013-05-31 05:06:00,57.9,52.4,29.45,SSE,166,3.0,3.0,82,0.00,,,0.10,vanprod-2.3,2013-05-31 10:06:00,
2013-05-31 05:11:00,57.9,51.8,29.45,SSE,168,4.0,4.0,80,0.00,,,0.10,vanprod-2.3,2013-05-31 10:11:00,
2013-05-31 05:16:00,57.9,51.8,29.45,South,169,2.0,6.0,80,0.00,,,0.10,vanprod-2.3,2013-05-31 10:16:00,
2013-05-31 05:21:00,57.8,51.3,29.45,SSE,164,3.0,3.0,79,0.00,,,0.10,vanprod-2.3,2013-05-31 10:21:00,
2013-05-31 05:26:00,57.6,50.8,29.45,SSE,162,3.0,6.0,78,0.00,,,0.10,vanprod-2.3,2013-05-31 10:26:00,
2013-05-31 05:31:00,57.8,50.6,29.45,South,179,4.0,6.0,77,0.00,,,0.10,vanprod-2.3,2013-05-31 10:31:00,
2013-05-31 05:36:00,57.6,50.1,29.45,SSE,163,2.0,5.0,76,0.00,,,0.10,vanprod-2.3,2013-05-31 10:36:00,
2013-05-31 05:41:00,57.8,49.9,29.45,South,169,4.0,4.0,75,0.00,,,0.10,vanprod-2.3,2013-05-31 10:41:00,
2013-05-31 05:46:00,57.8,50.3,29.45,South,169,3.0,3.0,76,0.00,,,0.10,vanprod-2.3,2013-05-31 10:46:00,
2013-05-31 05:51:00,57.6,50.8,29.45,South,169,3.0,3.0,78,0.00,,,0.10,vanprod-2.3,2013-05-31 10:51:00,
2013-05-31 05:56:00,57.6,51.1,29.45,SSE,162,4.0,5.0,79,0.00,,,0.10,vanprod-2.3,2013-05-31 10:56:00,
2013-05-31 06:01:00,57.8,51.3,29.45,SSE,159,4.0,10.0,79,0.00,,,0.10,vanprod-2.3,2013-05-31 11:01:00,
2013-05-31 06:06:00,57.6,51.5,29.45,SSE,160,2.0,3.0,80,0.00,,,0.10,vanprod-2.3,2013-05-31 11:06:00,
2013-05-31 06:11:00,57.5,51.4,29.45,SSE,166,4.0,9.0,80,0.00,,,0.10,vanprod-2.3,2013-05-31 11:11:00,
2013-05-31 06:16:00,57.3,51.2,29.45,South,173,4.0,8.0,80,0.00,,,0.10,vanprod-2.3,2013-05-31 11:16:00,
2013-05-31 06:21:00,57.1,51.0,29.45,SSW,210,6.0,7.0,80,0.00,,,0.10,vanprod-2.3,2013-05-31 11:21:00,
2013-05-31 06:26:00,57.3,50.5,29.45,SSW,205,5.0,12.0,78,0.00,,,0.10,vanprod-2.3,2013-05-31 11:26:00,
2013-05-31 06:31:00,57.3,50.5,29.45,South,172,5.0,8.0,78,0.00,,,0.10,vanprod-2.3,2013-05-31 11:31:00,
2013-05-31 06:36:00,57.3,50.5,29.45,South,172,4.0,6.0,78,0.00,,,0.10,vanprod-2.3,2013-05-31 11:36:00,
2013-05-31 06:41:00,57.5,50.7,29.44,South,176,2.0,4.0,78,0.00,,,0.10,vanprod-2.3,2013-05-31 11:41:00,
2013-05-31 06:46:00,57.5,50.4,29.44,South,171,5.0,5.0,77,0.00,,,0.10,vanprod-2.3,2013-05-31 11:46:00,
2013-05-31 06:51:00,57.6,50.1,29.44,SSE,166,5.0,6.0,76,0.00,,,0.10,vanprod-2.3,2013-05-31 11:51:00,
2013-05-31 06:56:00,57.8,50.3,29.44,SSE,156,4.0,11.0,76,0.00,,,0.10,vanprod-2.3,2013-05-31 11:56:00,
2013-05-31 07:01:00,57.8,50.3,29.44,SSE,148,4.0,10.0,76,0.00,,,0.10,vanprod-2.3,2013-05-31 12:01:00,
2013-05-31 07:06:00,58.1,49.9,29.44,SSE,157,5.0,5.0,74,0.00,,,0.10,vanprod-2.3,2013-05-31 12:06:00,
2013-05-31 07:11:00,58.2,50.0,29.44,South,174,5.0,6.0,74,0.00,,,0.10,vanprod-2.3,2013-05-31 12:11:00,
2013-05-31 07:16:00,58.4,50.2,29.44,South,171,3.0,9.0,74,0.00,,,0.10,vanprod-2.3,2013-05-31 12:16:00,
2013-05-31 07:21:00,58.5,50.3,29.44,South,171,4.0,7.0,74,0.00,,,0.10,vanprod-2.3,2013-05-31 12:21:00,
2013-05-31 07:26:00,58.7,50.1,29.44,South,173,6.0,6.0,73,0.01,,,0.11,vanprod-2.3,2013-05-31 12:26:00,
2013-05-31 07:31:00,58.7,50.4,29.44,SSW,195,4.0,7.0,74,0.01,,,0.11,vanprod-2.3,2013-05-31 12:31:00,
2013-05-31 07:36:00,58.8,50.5,29.44,South,178,4.0,4.0,74,0.01,,,0.11,vanprod-2.3,2013-05-31 12:36:00,
2013-05-31 07:41:00,58.8,50.5,29.44,South,184,6.0,10.0,74,0.01,,,0.11,vanprod-2.3,2013-05-31 12:41:00,
2013-05-31 07:46:00,58.8,50.5,29.44,SSE,152,6.0,7.0,74,0.01,,,0.11,vanprod-2.3,2013-05-31 12:46:00,
2013-05-31 07:51:00,59.0,50.7,29.44,WSW,249,5.0,7.0,74,0.01,,,0.11,vanprod-2.3,2013-05-31 12:51:00,
2013-05-31 07:56:00,59.1,50.8,29.43,SSE,162,6.0,6.0,74,0.01,,,0.11,vanprod-2.3,2013-05-31 12:56:00,
2013-05-31 08:01:00,59.4,50.8,29.44,South,180,7.0,11.0,73,0.01,,,0.11,vanprod-2.3,2013-05-31 13:01:00,
2013-05-31 08:06:00,59.6,50.6,29.44,SSE,165,6.0,11.0,72,0.01,,,0.11,vanprod-2.3,2013-05-31 13:06:00,
2013-05-31 08:11:00,59.7,50.3,29.44,SSE,163,7.0,9.0,71,0.01,,,0.11,vanprod-2.3,2013-05-31 13:11:00,
2013-05-31 08:16:00,59.7,50.3,29.44,SSW,202,6.0,10.0,71,0.01,,,0.11,vanprod-2.3,2013-05-31 13:16:00,
2013-05-31 08:21:00,59.9,50.1,29.44,South,191,6.0,6.0,70,0.01,,,0.11,vanprod-2.3,2013-05-31 13:21:00,
2013-05-31 08:26:00,60.0,51.3,29.45,SSW,193,5.0,16.0,73,0.00,,,0.11,vanprod-2.3,2013-05-31 13:26:00,
2013-05-31 08:31:00,59.9,50.9,29.45,SE,132,7.0,10.0,72,0.00,,,0.11,vanprod-2.3,2013-05-31 13:31:00,
2013-05-31 08:36:00,59.6,50.9,29.45,South,183,7.0,13.0,73,0.00,,,0.11,vanprod-2.3,2013-05-31 13:36:00,
2013-05-31 08:41:00,59.6,51.7,29.45,SSW,194,5.0,6.0,75,0.00,,,0.11,vanprod-2.3,2013-05-31 13:41:00,
2013-05-31 08:46:00,59.9,52.0,29.45,South,175,7.0,12.0,75,0.00,,,0.11,vanprod-2.3,2013-05-31 13:46:00,
2013-05-31 08:51:00,60.0,52.1,29.45,South,171,6.0,10.0,75,0.00,,,0.11,vanprod-2.3,2013-05-31 13:51:00,
2013-05-31 08:56:00,60.4,51.7,29.45,SSW,197,11.0,14.0,73,0.00,,,0.11,vanprod-2.3,2013-05-31 13:56:00,
2013-05-31 09:01:00,60.7,52.0,29.45,South,190,8.0,8.0,73,0.00,,,0.11,vanprod-2.3,2013-05-31 14:01:00,
2013-05-31 09:06:00,60.8,52.1,29.45,SSW,212,7.0,7.0,73,0.00,,,0.11,vanprod-2.3,2013-05-31 14:06:00,
2013-05-31 09:11:00,60.5,51.8,29.45,South,191,8.0,11.0,73,0.00,,,0.11,vanprod-2.3,2013-05-31 14:11:00,
2013-05-31 09:16:00,60.4,52.1,29.45,South,180,7.0,13.0,74,0.00,,,0.11,vanprod-2.3,2013-05-31 14:16:00,
2013-05-31 09:21:00,60.0,51.7,29.46,SSE,165,7.0,10.0,74,0.00,,,0.11,vanprod-2.3,2013-05-31 14:21:00,
2013-05-31 09:26:00,60.0,52.1,29.46,SSE,167,7.0,7.0,75,0.00,,,0.11,vanprod-2.3,2013-05-31 14:26:00,
2013-05-31 09:31:00,59.9,52.3,29.47,SSW,192,8.0,10.0,76,0.00,,,0.11,vanprod-2.3,2013-05-31 14:31:00,
2013-05-31 09:36:00,59.7,52.5,29.47,West,279,5.0,5.0,77,0.00,,,0.11,vanprod-2.3,2013-05-31 14:36:00,
2013-05-31 09:41:00,59.7,51.8,29.46,South,174,7.0,7.0,75,0.00,,,0.11,vanprod-2.3,2013-05-31 14:41:00,
2013-05-31 09:46:00,59.9,52.0,29.47,SW,221,4.0,7.0,75,0.00,,,0.11,vanprod-2.3,2013-05-31 14:46:00,
2013-05-31 09:51:00,60.0,51.7,29.46,SSW,212,5.0,6.0,74,0.00,,,0.11,vanprod-2.3,2013-05-31 14:51:00,
2013-05-31 09:56:00,60.5,52.2,29.46,SSW,197,5.0,10.0,74,0.00,,,0.11,vanprod-2.3,2013-05-31 14:56:00,
2013-05-31 10:01:00,60.7,52.0,29.46,South,190,6.0,11.0,73,0.00,,,0.11,vanprod-2.3,2013-05-31 15:01:00,
2013-05-31 10:06:00,60.8,51.7,29.47,South,185,8.0,11.0,72,0.00,,,0.11,vanprod-2.3,2013-05-31 15:06:00,
2013-05-31 10:11:00,60.8,51.7,29.46,SSW,199,6.0,6.0,72,0.00,,,0.11,vanprod-2.3,2013-05-31 15:11:00,
2013-05-31 10:16:00,60.8,51.7,29.46,South,173,8.0,12.0,72,0.00,,,0.11,vanprod-2.3,2013-05-31 15:16:00,
2013-05-31 10:21:00,60.8,52.1,29.46,SSW,202,9.0,17.0,73,0.00,,,0.11,vanprod-2.3,2013-05-31 15:21:00,
2013-05-31 10:26:00,61.0,52.7,29.46,South,188,5.0,8.0,74,0.00,,,0.11,vanprod-2.3,2013-05-31 15:26:00,
2013-05-31 10:31:00,61.1,52.4,29.46,SSE,160,8.0,16.0,73,0.00,,,0.11,vanprod-2.3,2013-05-31 15:31:00,
2013-05-31 10:36:00,61.1,52.0,29.47,SSW,213,9.0,14.0,72,0.00,,,0.11,vanprod-2.3,2013-05-31 15:36:00,
2013-05-31 10:41:00,61.0,52.7,29.47,SW,216,6.0,6.0,74,0.00,,,0.11,vanprod-2.3,2013-05-31 15:41:00,
2013-05-31 10:46:00,61.3,52.6,29.47,SSW,209,6.0,7.0,73,0.00,,,0.11,vanprod-2.3,2013-05-31 15:46:00,
2013-05-31 10:51:00,61.1,52.4,29.47,SSW,210,9.0,13.0,73,0.00,,,0.11,vanprod-2.3,2013-05-31 15:51:00,
2013-05-31 10:56:00,61.1,52.4,29.47,SW,214,6.0,7.0,73,0.00,,,0.11,vanprod-2.3,2013-05-31 15:56:00,
2013-05-31 11:01:00,61.3,53.0,29.47,South,186,6.0,6.0,74,0.00,,,0.11,vanprod-2.3,2013-05-31 16:01:00,
2013-05-31 11:06:00,61.5,52.8,29.47,SSW,207,6.0,7.0,73,0.00,,,0.11,vanprod-2.3,2013-05-31 16:06:00,
2013-05-31 11:11:00,61.8,52.7,29.47,SSW,197,6.0,9.0,72,0.00,,,0.11,vanprod-2.3,2013-05-31 16:11:00,
2013-05-31 11:16:00,61.9,52.4,29.47,SSW,201,7.0,7.0,71,0.00,,,0.11,vanprod-2.3,2013-05-31 16:16:00,
2013-05-31 11:21:00,61.9,52.4,29.47,South,189,7.0,7.0,71,0.00,,,0.11,vanprod-2.3,2013-05-31 16:21:00,
2013-05-31 11:26:00,62.2,53.1,29.47,SSW,195,6.0,8.0,72,0.00,,,0.11,vanprod-2.3,2013-05-31 16:26:00,
2013-05-31 11:31:00,62.7,52.4,29.48,South,173,10.0,12.0,69,0.00,,,0.11,vanprod-2.3,2013-05-31 16:31:00,
2013-05-31 11:36:00,63.0,53.1,29.48,South,189,6.0,7.0,70,0.00,,,0.11,vanprod-2.3,2013-05-31 16:36:00,
2013-05-31 11:41:00,62.6,52.7,29.48,SW,218,7.0,8.0,70,0.00,,,0.11,vanprod-2.3,2013-05-31 16:41:00,
2013-05-31 11:46:00,62.1,51.8,29.48,SW,214,10.0,10.0,69,0.00,,,0.11,vanprod-2.3,2013-05-31 16:46:00,
2013-05-31 11:51:00,62.1,52.2,29.49,SSW,192,6.0,6.0,70,0.00,,,0.11,vanprod-2.3,2013-05-31 16:51:00,
2013-05-31 11:56:00,62.6,52.3,29.49,SW,220,8.0,10.0,69,0.00,,,0.11,vanprod-2.3,2013-05-31 16:56:00,
2013-05-31 12:01:00,62.6,52.3,29.49,South,181,7.0,7.0,69,0.00,,,0.11,vanprod-2.3,2013-05-31 17:01:00,
2013-05-31 12:06:00,62.6,52.3,29.49,South,176,9.0,13.0,69,0.00,,,0.11,vanprod-2.3,2013-05-31 17:06:00,
2013-05-31 12:11:00,62.9,52.6,29.49,South,191,7.0,8.0,69,0.00,,,0.11,vanprod-2.3,2013-05-31 17:11:00,
2013-05-31 12:16:00,63.0,51.9,29.49,SSW,194,9.0,11.0,67,0.00,,,0.11,vanprod-2.3,2013-05-31 17:16:00,
2013-05-31 12:21:00,63.0,52.3,29.49,SSW,192,8.0,8.0,68,0.00,,,0.11,vanprod-2.3,2013-05-31 17:21:00,
2013-05-31 12:26:00,63.2,52.5,29.49,South,190,8.0,11.0,68,0.00,,,0.11,vanprod-2.3,2013-05-31 17:26:00,
2013-05-31 12:31:00,63.2,52.9,29.50,SSW,201,5.0,6.0,69,0.00,,,0.11,vanprod-2.3,2013-05-31 17:31:00,
2013-05-31 12:36:00,63.2,52.9,29.50,South,178,6.0,6.0,69,0.00,,,0.11,vanprod-2.3,2013-05-31 17:36:00,
2013-05-31 12:41:00,63.4,53.5,29.50,South,169,7.0,7.0,70,0.00,,,0.11,vanprod-2.3,2013-05-31 17:41:00,
2013-05-31 12:46:00,63.8,52.6,29.49,SW,217,9.0,13.0,67,0.00,,,0.11,vanprod-2.3,2013-05-31 17:46:00,
2013-05-31 12:51:00,64.2,53.0,29.49,South,176,8.0,8.0,67,0.00,,,0.11,vanprod-2.3,2013-05-31 17:51:00,
2013-05-31 12:56:00,64.2,53.0,29.50,South,179,6.0,8.0,67,0.00,,,0.11,vanprod-2.3,2013-05-31 17:56:00,
2013-05-31 13:01:00,64.3,53.1,29.49,SSW,199,6.0,7.0,67,0.00,,,0.11,vanprod-2.3,2013-05-31 18:01:00,
2013-05-31 13:06:00,64.2,53.0,29.50,SSW,204,6.0,7.0,67,0.00,,,0.11,vanprod-2.3,2013-05-31 18:06:00,
2013-05-31 13:11:00,64.0,53.2,29.50,SSW,195,4.0,6.0,68,0.00,,,0.11,vanprod-2.3,2013-05-31 18:11:00,
2013-05-31 13:16:00,64.7,53.1,29.50,South,180,8.0,8.0,66,0.00,,,0.11,vanprod-2.3,2013-05-31 18:16:00,
2013-05-31 13:21:00,65.3,52.0,29.49,South,188,9.0,9.0,62,0.00,,,0.11,vanprod-2.3,2013-05-31 18:21:00,
2013-05-31 13:26:00,65.3,52.4,29.49,SSW,198,8.0,9.0,63,0.00,,,0.11,vanprod-2.3,2013-05-31 18:26:00,
2013-05-31 13:31:00,65.0,52.5,29.50,SSE,161,8.0,8.0,64,0.00,,,0.11,vanprod-2.3,2013-05-31 18:31:00,
2013-05-31 13:36:00,64.7,51.8,29.50,South,178,8.0,8.0,63,0.00,,,0.11,vanprod-2.3,2013-05-31 18:36:00,
2013-05-31 13:41:00,64.5,52.1,29.50,SSE,163,6.0,12.0,64,0.00,,,0.11,vanprod-2.3,2013-05-31 18:41:00,
2013-05-31 13:46:00,64.5,52.1,29.50,SSE,161,6.0,7.0,64,0.00,,,0.11,vanprod-2.3,2013-05-31 18:46:00,
2013-05-31 13:51:00,64.3,52.3,29.50,SSW,194,5.0,5.0,65,0.00,,,0.11,vanprod-2.3,2013-05-31 18:51:00,
2013-05-31 13:56:00,64.3,53.1,29.50,South,181,4.0,7.0,67,0.00,,,0.11,vanprod-2.3,2013-05-31 18:56:00,
2013-05-31 14:01:00,64.3,52.3,29.50,SSW,213,5.0,5.0,65,0.00,,,0.11,vanprod-2.3,2013-05-31 19:01:00,
2013-05-31 14:06:00,64.3,51.9,29.50,SSW,206,7.0,7.0,64,0.00,,,0.11,vanprod-2.3,2013-05-31 19:06:00,
2013-05-31 14:11:00,64.3,52.3,29.50,SSW,197,5.0,6.0,65,0.00,,,0.11,vanprod-2.3,2013-05-31 19:11:00,
2013-05-31 14:16:00,64.3,51.9,29.50,SSW,210,7.0,7.0,64,0.00,,,0.11,vanprod-2.3,2013-05-31 19:16:00,
2013-05-31 14:21:00,64.3,51.9,29.50,South,185,6.0,8.0,64,0.00,,,0.11,vanprod-2.3,2013-05-31 19:21:00,
2013-05-31 14:26:00,64.5,51.6,29.50,South,187,7.0,7.0,63,0.00,,,0.11,vanprod-2.3,2013-05-31 19:26:00,
2013-05-31 14:31:00,64.5,51.6,29.50,SW,215,5.0,5.0,63,0.00,,,0.11,vanprod-2.3,2013-05-31 19:31:00,
2013-05-31 14:36:00,64.7,52.3,29.50,SSW,192,4.0,10.0,64,0.00,,,0.11,vanprod-2.3,2013-05-31 19:36:00,
2013-05-31 14:41:00,65.0,52.1,29.50,SSW,204,7.0,7.0,63,0.00,,,0.11,vanprod-2.3,2013-05-31 19:41:00,
2013-05-31 14:46:00,65.0,51.7,29.50,SSW,213,7.0,8.0,62,0.00,,,0.11,vanprod-2.3,2013-05-31 19:46:00,
2013-05-31 14:51:00,64.8,51.9,29.50,SSW,195,4.0,6.0,63,0.00,,,0.11,vanprod-2.3,2013-05-31 19:51:00,
2013-05-31 14:56:00,64.5,51.2,29.50,SW,217,6.0,6.0,62,0.00,,,0.11,vanprod-2.3,2013-05-31 19:56:00,
2013-05-31 15:01:00,64.7,51.8,29.50,South,181,5.0,13.0,63,0.00,,,0.11,vanprod-2.3,2013-05-31 20:01:00,
2013-05-31 15:06:00,65.0,51.7,29.50,SW,215,7.0,8.0,62,0.00,,,0.11,vanprod-2.3,2013-05-31 20:06:00,
2013-05-31 15:11:00,65.0,51.7,29.50,South,182,5.0,8.0,62,0.00,,,0.11,vanprod-2.3,2013-05-31 20:11:00,
2013-05-31 15:16:00,65.0,51.7,29.50,SSW,209,6.0,6.0,62,0.00,,,0.11,vanprod-2.3,2013-05-31 20:16:00,
2013-05-31 15:21:00,65.0,51.7,29.50,SW,234,5.0,5.0,62,0.00,,,0.11,vanprod-2.3,2013-05-31 20:21:00,
2013-05-31 15:26:00,65.1,51.3,29.50,SSW,212,7.0,8.0,61,0.00,,,0.11,vanprod-2.3,2013-05-31 20:26:00,
2013-05-31 15:31:00,65.5,51.7,29.50,SSW,200,5.0,7.0,61,0.00,,,0.11,vanprod-2.3,2013-05-31 20:31:00,
2013-05-31 15:36:00,65.6,50.9,29.50,SSW,193,8.0,8.0,59,0.00,,,0.11,vanprod-2.3,2013-05-31 20:36:00,
2013-05-31 15:41:00,65.6,50.9,29.50,SW,218,6.0,6.0,59,0.00,,,0.11,vanprod-2.3,2013-05-31 20:41:00,
2013-05-31 15:46:00,65.8,52.0,29.50,SW,225,5.0,5.0,61,0.00,,,0.11,vanprod-2.3,2013-05-31 20:46:00,
2013-05-31 15:51:00,65.6,51.4,29.50,South,187,6.0,12.0,60,0.00,,,0.11,vanprod-2.3,2013-05-31 20:51:00,
2013-05-31 15:56:00,65.5,51.7,29.50,SSW,211,4.0,4.0,61,0.00,,,0.11,vanprod-2.3,2013-05-31 20:56:00,
2013-05-31 16:01:00,65.6,51.8,29.50,SW,214,5.0,5.0,61,0.00,,,0.11,vanprod-2.3,2013-05-31 21:01:00,
2013-05-31 16:06:00,65.5,51.7,29.50,SW,216,9.0,9.0,61,0.00,,,0.11,vanprod-2.3,2013-05-31 21:06:00,
2013-05-31 16:11:00,65.6,51.8,29.50,South,185,2.0,2.0,61,0.00,,,0.11,vanprod-2.3,2013-05-31 21:11:00,
2013-05-31 16:16:00,65.6,51.8,29.50,South,185,7.0,7.0,61,0.00,,,0.11,vanprod-2.3,2013-05-31 21:16:00,
2013-05-31 16:21:00,65.5,52.2,29.50,South,189,4.0,8.0,62,0.00,,,0.11,vanprod-2.3,2013-05-31 21:21:00,
2013-05-31 16:26:00,65.6,51.8,29.50,SSW,204,6.0,6.0,61,0.00,,,0.11,vanprod-2.3,2013-05-31 21:26:00,
2013-05-31 16:31:00,65.9,53.0,29.50,SW,229,3.0,3.0,63,0.00,,,0.11,vanprod-2.3,2013-05-31 21:31:00,
2013-05-31 16:36:00,66.3,51.6,29.50,SW,218,5.0,8.0,59,0.00,,,0.11,vanprod-2.3,2013-05-31 21:36:00,
2013-05-31 16:41:00,66.8,52.9,29.50,WSW,239,3.0,3.0,61,0.00,,,0.11,vanprod-2.3,2013-05-31 21:41:00,
2013-05-31 16:46:00,66.9,52.6,29.50,SSW,202,5.0,6.0,60,0.00,,,0.11,vanprod-2.3,2013-05-31 21:46:00,
2013-05-31 16:51:00,67.1,51.4,29.50,SW,231,4.0,4.0,57,0.00,,,0.11,vanprod-2.3,2013-05-31 21:51:00,
2013-05-31 16:56:00,67.1,52.3,29.50,SSW,209,3.0,5.0,59,0.00,,,0.11,vanprod-2.3,2013-05-31 21:56:00,
2013-05-31 17:01:00,66.6,52.3,29.50,SW,215,5.0,5.0,60,0.00,,,0.11,vanprod-2.3,2013-05-31 22:01:00,
2013-05-31 17:06:00,66.3,52.0,29.50,SW,215,2.0,3.0,60,0.00,,,0.11,vanprod-2.3,2013-05-31 22:06:00,
2013-05-31 17:11:00,66.1,52.3,29.50,WSW,257,3.0,3.0,61,0.00,,,0.11,vanprod-2.3,2013-05-31 22:11:00,
2013-05-31 17:16:00,66.3,52.5,29.51,ESE,123,4.0,5.0,61,0.00,,,0.11,vanprod-2.3,2013-05-31 22:16:00,
2013-05-31 17:21:00,66.6,52.3,29.50,South,189,5.0,5.0,60,0.00,,,0.11,vanprod-2.3,2013-05-31 22:21:00,
2013-05-31 17:26:00,66.6,52.7,29.51,SW,227,7.0,7.0,61,0.00,,,0.11,vanprod-2.3,2013-05-31 22:26:00,
2013-05-31 17:31:00,66.4,52.1,29.51,WNW,292,4.0,4.0,60,0.00,,,0.11,vanprod-2.3,2013-05-31 22:31:00,
2013-05-31 17:36:00,66.3,53.3,29.51,WSW,250,2.0,3.0,63,0.00,,,0.11,vanprod-2.3,2013-05-31 22:36:00,
2013-05-31 17:41:00,66.3,52.9,29.51,WNW,282,4.0,6.0,62,0.00,,,0.11,vanprod-2.3,2013-05-31 22:41:00,
2013-05-31 17:46:00,66.1,52.7,29.51,SW,223,2.0,0.0,62,0.00,,,0.11,vanprod-2.3,2013-05-31 22:46:00,
2013-05-31 17:51:00,66.3,52.0,29.51,SW,233,5.0,7.0,60,0.00,,,0.11,vanprod-2.3,2013-05-31 22:51:00,
2013-05-31 17:56:00,66.4,52.1,29.51,SW,219,6.0,6.0,60,0.00,,,0.11,vanprod-2.3,2013-05-31 22:56:00,
2013-05-31 18:01:00,66.3,51.6,29.51,SSW,213,4.0,5.0,59,0.00,,,0.11,vanprod-2.3,2013-05-31 23:01:00,
2013-05-31 18:06:00,66.4,52.1,29.51,SW,217,3.0,3.0,60,0.00,,,0.11,vanprod-2.3,2013-05-31 23:06:00,
2013-05-31 18:11:00,66.6,51.8,29.51,South,181,4.0,4.0,59,0.00,,,0.11,vanprod-2.3,2013-05-31 23:11:00,
2013-05-31 18:16:00,66.6,52.3,29.51,SSE,158,4.0,4.0,60,0.00,,,0.11,vanprod-2.3,2013-05-31 23:16:00,
2013-05-31 18:21:00,66.8,52.5,29.51,South,189,4.0,5.0,60,0.00,,,0.11,vanprod-2.3,2013-05-31 23:21:00,
2013-05-31 18:26:00,66.9,52.1,29.51,SW,223,4.0,4.0,59,0.00,,,0.11,vanprod-2.3,2013-05-31 23:26:00,
2013-05-31 18:31:00,66.9,51.7,29.51,South,171,6.0,6.0,58,0.00,,,0.11,vanprod-2.3,2013-05-31 23:31:00,
2013-05-31 18:36:00,66.6,52.3,29.51,South,176,4.0,4.0,60,0.00,,,0.11,vanprod-2.3,2013-05-31 23:36:00,
2013-05-31 18:41:00,66.6,51.4,29.50,WSW,243,5.0,5.0,58,0.00,,,0.11,vanprod-2.3,2013-05-31 23:41:00,
2013-05-31 18:46:00,66.8,52.5,29.51,WSW,238,4.0,4.0,60,0.00,,,0.11,vanprod-2.3,2013-05-31 23:46:00,
2013-05-31 18:51:00,66.9,52.1,29.51,SW,235,4.0,4.0,59,0.00,,,0.11,vanprod-2.3,2013-05-31 23:51:00,
2013-05-31 18:56:00,66.8,52.9,29.51,SW,234,2.0,3.0,61,0.00,,,0.11,vanprod-2.3,2013-05-31 23:56:00,
2013-05-31 19:01:00,66.6,52.7,29.51,SW,233,2.0,3.0,61,0.00,,,0.11,vanprod-2.3,2013-06-01 00:01:00,
2013-05-31 19:06:00,66.4,52.6,29.51,WSW,237,1.0,0.0,61,0.00,,,0.11,vanprod-2.3,2013-06-01 00:06:00,
2013-05-31 19:11:00,66.4,52.6,29.51,West,268,4.0,4.0,61,0.00,,,0.11,vanprod-2.3,2013-06-01 00:11:00,
2013-05-31 19:16:00,66.3,52.5,29.51,SW,217,4.0,4.0,61,0.00,,,0.11,vanprod-2.3,2013-06-01 00:16:00,
2013-05-31 19:21:00,66.4,53.0,29.51,SSW,212,3.0,7.0,62,0.00,,,0.11,vanprod-2.3,2013-06-01 00:21:00,
2013-05-31 19:26:00,66.4,52.6,29.50,WSW,246,5.0,0.0,61,0.00,,,0.11,vanprod-2.3,2013-06-01 00:26:00,
2013-05-31 19:31:00,66.1,53.2,29.51,WSW,247,2.0,2.0,63,0.00,,,0.11,vanprod-2.3,2013-06-01 00:31:00,
2013-05-31 19:36:00,65.9,52.5,29.51,WSW,244,3.0,3.0,62,0.00,,,0.11,vanprod-2.3,2013-06-01 00:36:00,
2013-05-31 19:41:00,65.8,52.4,29.51,WSW,239,4.0,7.0,62,0.00,,,0.11,vanprod-2.3,2013-06-01 00:41:00,
2013-05-31 19:46:00,65.8,52.4,29.51,SW,232,3.0,6.0,62,0.00,,,0.11,vanprod-2.3,2013-06-01 00:46:00,
2013-05-31 19:51:00,65.8,52.4,29.51,SW,232,3.0,3.0,62,0.00,,,0.11,vanprod-2.3,2013-06-01 00:51:00,
2013-05-31 19:56:00,65.8,52.0,29.51,SSW,212,5.0,5.0,61,0.00,,,0.11,vanprod-2.3,2013-06-01 00:56:00,
2013-05-31 20:01:00,65.8,52.0,29.50,SW,218,6.0,7.0,61,0.00,,,0.11,vanprod-2.3,2013-06-01 01:01:00,
2013-05-31 20:06:00,65.6,52.2,29.51,SSW,209,2.0,0.0,62,0.00,,,0.11,vanprod-2.3,2013-06-01 01:06:00,
2013-05-31 20:11:00,65.6,52.2,29.51,SSW,209,3.0,3.0,62,0.00,,,0.11,vanprod-2.3,2013-06-01 01:11:00,
2013-05-31 20:16:00,65.5,52.6,29.51,SSW,205,2.0,0.0,63,0.00,,,0.11,vanprod-2.3,2013-06-01 01:16:00,
2013-05-31 20:21:00,65.3,52.0,29.51,SSE,164,3.0,3.0,62,0.00,,,0.11,vanprod-2.3,2013-06-01 01:21:00,
2013-05-31 20:26:00,65.1,52.2,29.51,SW,218,4.0,6.0,63,0.00,,,0.11,vanprod-2.3,2013-06-01 01:26:00,
2013-05-31 20:31:00,65.0,52.5,29.52,WSW,240,2.0,3.0,64,0.00,,,0.11,vanprod-2.3,2013-06-01 01:31:00,
2013-05-31 20:36:00,64.7,52.7,29.51,WSW,239,1.0,1.0,65,0.00,,,0.11,vanprod-2.3,2013-06-01 01:36:00,
2013-05-31 20:41:00,64.5,52.9,29.51,WSW,239,2.0,6.0,66,0.00,,,0.11,vanprod-2.3,2013-06-01 01:41:00,
2013-05-31 20:46:00,64.2,53.0,29.52,WSW,237,0.0,1.0,67,0.00,,,0.11,vanprod-2.3,2013-06-01 01:46:00,
2013-05-31 20:51:00,64.0,52.8,29.52,SSW,192,2.0,2.0,67,0.00,,,0.11,vanprod-2.3,2013-06-01 01:51:00,
2013-05-31 20:56:00,63.7,53.0,29.52,WSW,254,2.0,0.0,68,0.00,,,0.11,vanprod-2.3,2013-06-01 01:56:00,
2013-05-31 21:01:00,63.5,52.8,29.52,SSW,206,4.0,0.0,68,0.00,,,0.11,vanprod-2.3,2013-06-01 02:01:00,
2013-05-31 21:06:00,63.4,53.1,29.52,SSW,203,1.0,2.0,69,0.00,,,0.11,vanprod-2.3,2013-06-01 02:06:00,
2013-05-31 21:11:00,63.2,52.9,29.52,SSW,203,2.0,2.0,69,0.00,,,0.11,vanprod-2.3,2013-06-01 02:11:00,
2013-05-31 21:16:00,63.0,53.1,29.53,SSW,202,2.0,3.0,70,0.00,,,0.11,vanprod-2.3,2013-06-01 02:16:00,
2013-05-31 21:21:00,62.9,53.0,29.52,SSW,202,2.0,2.0,70,0.00,,,0.11,vanprod-2.3,2013-06-01 02:21:00,
2013-05-31 21:26:00,62.7,52.8,29.53,SSW,212,2.0,2.0,70,0.00,,,0.11,vanprod-2.3,2013-06-01 02:26:00,
2013-05-31 21:31:00,62.6,53.1,29.53,SW,214,2.0,2.0,71,0.00,,,0.11,vanprod-2.3,2013-06-01 02:31:00,
2013-05-31 21:36:00,62.6,53.1,29.53,SW,215,2.0,2.0,71,0.00,,,0.11,vanprod-2.3,2013-06-01 02:36:00,
2013-05-31 21:41:00,62.4,53.3,29.54,SW,215,1.0,0.0,72,0.00,,,0.11,vanprod-2.3,2013-06-01 02:41:00,
2013-05-31 21:46:00,62.4,53.6,29.54,SW,215,2.0,2.0,73,0.00,,,0.11,vanprod-2.3,2013-06-01 02:46:00,
2013-05-31 21:51:00,62.2,53.1,29.54,SW,222,0.0,0.0,72,0.00,,,0.11,vanprod-2.3,2013-06-01 02:51:00,
2013-05-31 21:56:00,62.1,53.4,29.54,SW,222,2.0,2.0,73,0.00,,,0.11,vanprod-2.3,2013-06-01 02:56:00,
2013-05-31 22:01:00,61.9,53.2,29.54,SW,221,1.0,1.0,73,0.00,,,0.11,vanprod-2.3,2013-06-01 03:01:00,
2013-05-31 22:06:00,61.6,52.9,29.54,SW,220,2.0,2.0,73,0.00,,,0.11,vanprod-2.3,2013-06-01 03:06:00,
2013-05-31 22:11:00,61.6,53.2,29.54,SW,220,1.0,2.0,74,0.00,,,0.11,vanprod-2.3,2013-06-01 03:11:00,
2013-05-31 22:16:00,61.5,53.1,29.54,SW,220,1.0,0.0,74,0.00,,,0.11,vanprod-2.3,2013-06-01 03:16:00,
2013-05-31 22:21:00,61.3,53.3,29.54,SW,220,2.0,2.0,75,0.00,,,0.11,vanprod-2.3,2013-06-01 03:21:00,
2013-05-31 22:26:00,61.1,53.5,29.54,SW,220,0.0,0.0,76,0.00,,,0.11,vanprod-2.3,2013-06-01 03:26:00,
2013-05-31 22:31:00,61.1,53.5,29.54,SW,220,1.0,0.0,76,0.00,,,0.11,vanprod-2.3,2013-06-01 03:31:00,
2013-05-31 22:36:00,60.8,53.2,29.54,SW,220,1.0,2.0,76,0.00,,,0.11,vanprod-2.3,2013-06-01 03:36:00,
2013-05-31 22:41:00,60.7,53.5,29.54,SW,220,0.0,0.0,77,0.00,,,0.11,vanprod-2.3,2013-06-01 03:41:00,
2013-05-31 22:46:00,60.7,53.8,29.53,SW,220,0.0,2.0,78,0.00,,,0.11,vanprod-2.3,2013-06-01 03:46:00,
2013-05-31 22:51:00,60.5,53.6,29.53,SW,220,2.0,3.0,78,0.00,,,0.11,vanprod-2.3,2013-06-01 03:51:00,
2013-05-31 22:56:00,60.5,53.6,29.53,SW,220,0.0,2.0,78,0.00,,,0.11,vanprod-2.3,2013-06-01 03:56:00,
2013-05-31 23:01:00,60.4,53.5,29.53,SW,220,3.0,4.0,78,0.00,,,0.11,vanprod-2.3,2013-06-01 04:01:00,
2013-05-31 23:06:00,60.4,53.5,29.53,SW,220,1.0,1.0,78,0.00,,,0.11,vanprod-2.3,2013-06-01 04:06:00,
2013-05-31 23:11:00,60.2,53.3,29.53,SW,220,1.0,5.0,78,0.00,,,0.11,vanprod-2.3,2013-06-01 04:11:00,
2013-05-31 23:16:00,60.2,53.3,29.53,SW,220,0.0,2.0,78,0.00,,,0.11,vanprod-2.3,2013-06-01 04:16:00,
2013-05-31 23:21:00,60.2,53.7,29.53,SW,220,0.0,0.0,79,0.00,,,0.11,vanprod-2.3,2013-06-01 04:21:00,
2013-05-31 23:26:00,60.2,54.0,29.53,SW,221,1.0,5.0,80,0.00,,,0.11,vanprod-2.3,2013-06-01 04:26:00,
2013-05-31 23:31:00,60.0,53.8,29.53,SW,220,2.0,2.0,80,0.00,,,0.11,vanprod-2.3,2013-06-01 04:31:00,
2013-05-31 23:36:00,59.9,53.7,29.53,SW,220,0.0,2.0,80,0.00,,,0.11,vanprod-2.3,2013-06-01 04:36:00,
2013-05-31 23:41:00,59.9,54.1,29.54,SW,220,0.0,1.0,81,0.00,,,0.11,vanprod-2.3,2013-06-01 04:41:00,
2013-05-31 23:46:00,59.7,53.9,29.54,SW,217,1.0,3.0,81,0.00,,,0.11,vanprod-2.3,2013-06-01 04:46:00,
2013-05-31 23:51:00,59.7,54.2,29.54,SW,217,2.0,2.0,82,0.00,,,0.11,vanprod-2.3,2013-06-01 04:51:00,
2013-05-31 23:56:00,59.6,54.1,29.54,SW,216,2.0,3.0,82,0.00,,,0.11,vanprod-2.3,2013-06-01 04:56:00,